Tur — UVYQ — position and weather

sailwx.info

Track history (hours):
 
Tides and Currents Weather Stations Pressure Air Temp Water Temp Dewpoint Dewpoint Depression Visibility Wind Speed Wind Dir Waves Ship Positions

Tur

Last reported at 2015-Jan-30 04:31 UTC. Time now 2015-Jan-30 04:57 UTC.
Position N 46°51' E 031°59'.

Length 35 m.

Type: Tug. MMSI: 272064600.

Date/timePositionNaut miles runAvg speedWind from/ knotsBaromVisibWave heightAir tempDewpointWater temp
2015-Jan-30 04:31N 46°51' E 031°59'0 0.0
2015-Jan-30 03:31N 46°51' E 031°59'0 0.0
2015-Jan-30 02:31N 46°51' E 031°59'0 0.0
2015-Jan-30 01:31N 46°51' E 031°59'0 0.0
2015-Jan-30 00:31N 46°51' E 031°59'0 0.0
2015-Jan-29 23:31N 46°51' E 031°59'0 0.0
2015-Jan-29 22:31N 46°51' E 031°59'0 0.0
2015-Jan-29 21:31N 46°51' E 031°59'0 0.0
2015-Jan-29 20:31N 46°51' E 031°59'0 0.0
2015-Jan-29 19:31N 46°51' E 031°59'0 0.0
2015-Jan-29 18:31N 46°51' E 031°59'0 0.0
2015-Jan-29 17:31N 46°51' E 031°59'0 0.0
2015-Jan-29 16:28N 46°51' E 031°59'0 0.0
2015-Jan-29 15:31N 46°51' E 031°59'0 0.0
2015-Jan-29 14:31N 46°51' E 031°59'0 0.0
2015-Jan-29 13:31N 46°51' E 031°59'0 0.0
2015-Jan-29 12:31N 46°51' E 031°59'0 0.0
2015-Jan-29 11:31N 46°51' E 031°59'0 0.0
2015-Jan-29 10:31N 46°51' E 031°59'0 0.0
2015-Jan-29 09:31N 46°51' E 031°59'0 0.0
2015-Jan-29 08:31N 46°51' E 031°59'0 0.0
2015-Jan-29 07:31N 46°51' E 031°59'0 0.0
2015-Jan-29 06:31N 46°51' E 031°59'0 0.0
2015-Jan-29 05:31N 46°51' E 031°59'0 0.0
2015-Jan-29 04:31N 46°51' E 031°59'0 0.0
2015-Jan-29 03:31N 46°51' E 031°59'0 0.0
2015-Jan-29 02:31N 46°51' E 031°59'0 0.0
2015-Jan-29 01:31N 46°51' E 031°59'0 0.0
2015-Jan-29 00:31N 46°51' E 031°59'1 1.3
2015-Jan-28 23:32N 46°50' E 031°57'2 1.6
2015-Jan-28 22:33N 46°51' E 031°59'0 0.3
2015-Jan-28 21:32N 46°51' E 031°59'0 0.0
2015-Jan-28 20:32N 46°51' E 031°59'0 0.0
2015-Jan-28 19:32N 46°51' E 031°59'0 0.0
2015-Jan-28 18:32N 46°51' E 031°59'0 0.0
2015-Jan-28 17:32N 46°51' E 031°59'0 0.0
2015-Jan-28 16:32N 46°51' E 031°59'0 0.0
2015-Jan-28 15:32N 46°51' E 031°59'0 0.1
2015-Jan-28 14:33N 46°51' E 031°59'1 0.9
2015-Jan-28 13:33N 46°51' E 031°58'1 1.4
2015-Jan-28 12:33N 46°50' E 031°56'2 1.7
2015-Jan-28 11:31N 46°51' E 031°59'0 0.0
2015-Jan-28 10:31N 46°51' E 031°59'0 0.0
2015-Jan-28 08:31N 46°51' E 031°59'0 0.0
2015-Jan-28 07:31N 46°51' E 031°59'0 0.3
2015-Jan-28 06:32N 46°51' E 031°59'0 0.3
2015-Jan-28 05:29N 46°51' E 031°59'0 0.0
2015-Jan-28 04:26N 46°51' E 031°59'0 0.0
2015-Jan-28 03:32N 46°51' E 031°59'0 0.0
2015-Jan-28 02:32N 46°51' E 031°59'0 0.0
2015-Jan-28 01:32N 46°51' E 031°59'0 0.0
2015-Jan-28 00:32N 46°51' E 031°59'0 0.0
2015-Jan-27 23:32N 46°51' E 031°59'0 0.0
2015-Jan-27 22:32N 46°51' E 031°59'0 0.0
2015-Jan-27 21:32N 46°51' E 031°59'0 0.2
2015-Jan-27 20:33N 46°51' E 031°59'0 0.2
2015-Jan-27 19:33N 46°51' E 031°59'0 0.0
2015-Jan-27 18:33N 46°51' E 031°59'0 0.0
2015-Jan-27 17:33N 46°51' E 031°59'0 0.0
2015-Jan-27 16:33N 46°51' E 031°59'0 0.0
2015-Jan-27 15:33N 46°51' E 031°59'0 0.0
2015-Jan-27 14:31N 46°51' E 031°59'0 0.0
2015-Jan-27 13:31N 46°51' E 031°59'0 0.0
2015-Jan-27 12:31N 46°51' E 031°59'0 0.0
2015-Jan-27 11:31N 46°51' E 031°59'0 0.0
2015-Jan-27 10:31N 46°51' E 031°59'0 0.0
2015-Jan-27 09:33N 46°51' E 031°59'0 0.0
2015-Jan-27 08:31N 46°51' E 031°59'0 0.0
2015-Jan-27 07:31N 46°51' E 031°59'0 0.0
2015-Jan-27 06:31N 46°51' E 031°59'0 0.0
2015-Jan-27 05:31N 46°51' E 031°59'0 0.0
2015-Jan-27 04:31N 46°51' E 031°59'0 0.0
2015-Jan-27 03:32N 46°51' E 031°59'0 0.0
2015-Jan-27 02:32N 46°51' E 031°59'0 0.0
2015-Jan-27 01:33N 46°51' E 031°59'1 0.8
2015-Jan-27 00:33N 46°51' E 031°58'1 0.8
2015-Jan-26 23:33N 46°51' E 031°59'0 0.0
2015-Jan-26 22:33N 46°51' E 031°59'0 0.0
2015-Jan-26 21:31N 46°51' E 031°59'0 0.0
2015-Jan-26 20:32N 46°51' E 031°59'0 0.0
2015-Jan-26 19:32N 46°51' E 031°59'0 0.0
2015-Jan-26 18:31N 46°51' E 031°59'0 0.0
2015-Jan-26 17:31N 46°51' E 031°59'0 0.0
2015-Jan-26 16:31N 46°51' E 031°59'0 0.0
2015-Jan-26 15:31N 46°51' E 031°59'0 0.0
2015-Jan-26 14:31N 46°51' E 031°59'0 0.0
2015-Jan-26 13:32N 46°51' E 031°59'0 0.0
2015-Jan-26 12:33N 46°51' E 031°59'0 0.1
2015-Jan-26 11:32N 46°51' E 031°59'0 0.1
2015-Jan-26 10:31N 46°51' E 031°59'0 0.0
2015-Jan-26 09:33N 46°51' E 031°59'0 0.0
2015-Jan-26 08:33N 46°51' E 031°59'0 0.0
2015-Jan-26 07:33N 46°51' E 031°59'0 0.0
2015-Jan-26 06:33N 46°51' E 031°59'1 1.0
2015-Jan-26 05:29N 46°50' E 031°57'1 1.2
2015-Jan-26 04:33N 46°51' E 031°59'0 0.0
2015-Jan-26 03:33N 46°51' E 031°59'0 0.0
2015-Jan-26 02:33N 46°51' E 031°59'0 0.0
2015-Jan-26 01:33N 46°51' E 031°59'0 0.0
2015-Jan-26 00:33N 46°51' E 031°59'0 0.0
2015-Jan-25 23:30N 46°51' E 031°59'0 0.0
2015-Jan-25 22:30N 46°51' E 031°59'0 0.0
2015-Jan-25 21:30N 46°51' E 031°59'0 0.0
2015-Jan-25 20:33N 46°51' E 031°59'0 0.0
2015-Jan-25 19:24N 46°51' E 031°59'0 0.0
2015-Jan-25 18:33N 46°51' E 031°59'0 0.0
2015-Jan-25 17:33N 46°51' E 031°59'0 0.2
2015-Jan-25 16:33N 46°51' E 031°59'0 0.2
2015-Jan-25 15:32N 46°51' E 031°59'0 0.0
2015-Jan-25 14:32N 46°51' E 031°59'0 0.0
2015-Jan-25 13:32N 46°51' E 031°59'0 0.0
2015-Jan-25 12:32N 46°51' E 031°59'0 0.0
2015-Jan-25 11:29N 46°51' E 031°59'0 0.0
2015-Jan-25 10:32N 46°51' E 031°59'0 0.0
2015-Jan-25 09:32N 46°51' E 031°59'0 0.0
2015-Jan-25 08:32N 46°51' E 031°59'0 0.0
2015-Jan-25 07:33N 46°51' E 031°59'0 0.0
2015-Jan-25 06:26N 46°51' E 031°59'0 0.0
2015-Jan-25 05:32N 46°51' E 031°59'0 0.0
2015-Jan-25 04:32N 46°51' E 031°59'0 0.0
2015-Jan-25 03:32N 46°51' E 031°59'0 0.3
2015-Jan-25 02:31N 46°51' E 031°59'0 0.3
2015-Jan-25 01:30N 46°51' E 031°59'0 0.0
2015-Jan-25 00:33N 46°51' E 031°59'0 0.0
2015-Jan-24 23:33N 46°51' E 031°59'0 0.0
2015-Jan-24 22:31N 46°51' E 031°59'0 0.4
2015-Jan-24 21:33N 46°51' E 031°59'0 0.0
2015-Jan-24 20:33N 46°51' E 031°59'0 0.0
2015-Jan-24 19:33N 46°51' E 031°59'0 0.0
2015-Jan-24 18:33N 46°51' E 031°59'0 0.0
2015-Jan-24 17:33N 46°51' E 031°59'0 0.3
2015-Jan-24 16:33N 46°51' E 031°59'2 2.0
2015-Jan-24 15:33N 46°50' E 031°56'2 2.1
2015-Jan-24 14:33N 46°51' E 031°59'1 1.4
2015-Jan-24 13:33N 46°51' E 031°57'8 7.8
2015-Jan-24 12:33N 46°43' E 031°56'6 0.3
2015-Jan-23 17:19N 46°37' E 031°52'6 7.8
2015-Jan-23 16:33N 46°42' E 031°56'8 7.9
2015-Jan-23 15:33N 46°50' E 031°56'1 1.2
2015-Jan-23 14:33N 46°51' E 031°57'1 1.1
2015-Jan-23 13:33N 46°51' E 031°59'0 0.0
2015-Jan-23 12:33N 46°51' E 031°59'5 4.8
2015-Jan-23 11:33N 46°56' E 032°01'3 2.8
2015-Jan-23 10:31N 46°59' E 031°60'0 0.0
2015-Jan-23 09:34N 46°59' E 031°60'0 0.0
2015-Jan-23 08:34N 46°59' E 031°60'1 1.0
2015-Jan-23 07:33N 46°59' E 031°59'5 4.6
2015-Jan-23 06:33N 46°55' E 032°01'4 4.0
2015-Jan-23 05:31N 46°51' E 031°59'0 0.0
2015-Jan-23 04:31N 46°51' E 031°59'0 0.0
2015-Jan-23 03:28N 46°51' E 031°59'0 0.0
2015-Jan-23 02:31N 46°51' E 031°59'0 0.0
2015-Jan-23 01:31N 46°51' E 031°59'0 0.0
2015-Jan-23 00:31N 46°51' E 031°59'0 0.0
2015-Jan-22 23:31N 46°51' E 031°59'0 0.0
2015-Jan-22 22:31N 46°51' E 031°59'0 0.0
2015-Jan-22 21:31N 46°51' E 031°59'0 0.0
2015-Jan-22 20:31N 46°51' E 031°59'0 0.0
2015-Jan-22 19:31N 46°51' E 031°59'0 0.0
2015-Jan-22 18:31N 46°51' E 031°59'0 0.0
2015-Jan-22 17:31N 46°51' E 031°59'0 0.0
2015-Jan-22 16:31N 46°51' E 031°59'0 0.0
2015-Jan-22 15:31N 46°51' E 031°59'0 0.0
2015-Jan-22 14:28N 46°51' E 031°59'0 0.0
2015-Jan-22 13:31N 46°51' E 031°59'0 0.0
2015-Jan-22 12:31N 46°51' E 031°59'0 0.0
2015-Jan-22 11:31N 46°51' E 031°59'0 0.0
2015-Jan-22 10:31N 46°51' E 031°59'0 0.0
2015-Jan-22 09:31N 46°51' E 031°59'0 0.0
2015-Jan-22 08:31N 46°51' E 031°59'0 0.0
2015-Jan-22 07:31N 46°51' E 031°59'0 0.0
2015-Jan-22 06:31N 46°51' E 031°59'0 0.0
2015-Jan-22 05:31N 46°51' E 031°59'0 0.0
2015-Jan-22 04:31N 46°51' E 031°59'0 0.0
2015-Jan-22 03:31N 46°51' E 031°59'0 0.0
2015-Jan-22 02:31N 46°51' E 031°59'0 0.0
2015-Jan-22 01:31N 46°51' E 031°59'0 0.0
2015-Jan-22 00:31N 46°51' E 031°59'0 0.0
2015-Jan-21 23:31N 46°51' E 031°59'0 0.0
2015-Jan-21 22:49N 46°51' E 031°59'0 0.0
2015-Jan-21 22:43N 46°51' E 031°59'0 0.0
2015-Jan-21 22:31N 46°51' E 031°59'0 0.0
2015-Jan-21 21:31N 46°51' E 031°59'0 0.0
2015-Jan-21 20:31N 46°51' E 031°59'5 5.2
2015-Jan-21 19:33N 46°56' E 032°01'7 6.6
2015-Jan-21 18:33N 46°50' E 031°56'2 2.1
2015-Jan-21 17:33N 46°51' E 031°59'0 0.0
2015-Jan-21 16:33N 46°51' E 031°59'0 0.0
2015-Jan-21 15:33N 46°51' E 031°59'0 0.0
2015-Jan-21 14:33N 46°51' E 031°59'0 0.0
2015-Jan-21 13:33N 46°51' E 031°59'0 0.3
2015-Jan-21 12:33N 46°51' E 031°59'0 0.3
2015-Jan-21 11:31N 46°51' E 031°59'0 0.0
2015-Jan-21 10:31N 46°51' E 031°59'0 0.0
2015-Jan-21 09:33N 46°51' E 031°59'0 0.0
2015-Jan-21 08:31N 46°51' E 031°59'0 0.0
2015-Jan-21 07:31N 46°51' E 031°59'0 0.0
2015-Jan-21 06:31N 46°51' E 031°59'0 0.0
2015-Jan-21 05:31N 46°51' E 031°59'0 0.0
2015-Jan-21 04:31N 46°51' E 031°59'0 0.0
2015-Jan-21 03:31N 46°51' E 031°59'0 0.0
2015-Jan-21 02:31N 46°51' E 031°59'0 0.0
2015-Jan-21 01:31N 46°51' E 031°59'0 0.0
2015-Jan-21 00:31N 46°51' E 031°59'0 0.0
2015-Jan-20 23:31N 46°51' E 031°59'0 0.0
2015-Jan-20 22:33N 46°51' E 031°59'0 0.0
2015-Jan-20 21:32N 46°51' E 031°59'0 0.0
2015-Jan-20 20:32N 46°51' E 031°59'0 0.0
2015-Jan-20 19:32N 46°51' E 031°59'0 0.0
2015-Jan-20 18:32N 46°51' E 031°59'0 0.0
2015-Jan-20 17:32N 46°51' E 031°59'0 0.0
2015-Jan-20 16:32N 46°51' E 031°59'0 0.0
2015-Jan-20 15:32N 46°51' E 031°59'0 0.0
2015-Jan-20 14:32N 46°51' E 031°59'0 0.0
2015-Jan-20 13:33N 46°51' E 031°59'0 0.0
2015-Jan-20 12:33N 46°51' E 031°59'0 0.0
2015-Jan-20 11:33N 46°51' E 031°59'0 0.0
2015-Jan-20 10:32N 46°51' E 031°59'0 0.0
2015-Jan-20 09:31N 46°51' E 031°59'0 0.0
2015-Jan-20 08:33N 46°51' E 031°59'0 0.0
2015-Jan-20 07:33N 46°51' E 031°59'0 0.0
2015-Jan-20 06:33N 46°51' E 031°59'0 0.0
2015-Jan-20 05:30N 46°51' E 031°59'  
Track history (hours):
 
Tides and Currents Weather Stations Pressure Air Temp Water Temp Dewpoint Dewpoint Depression Visibility Wind Speed Wind Dir Waves Ship Positions

Tur

Last reported at 2015-Jan-30 04:31 UTC. Time now 2015-Jan-30 04:57 UTC.
Position N 46°51' E 031°59'.

Length 35 m.

Type: Tug. MMSI: 272064600.

Date/timePositionNaut miles runAvg speedWind from/ knotsBaromVisibWave heightAir tempDewpointWater temp
2015-Jan-30 04:31N 46°51' E 031°59'0 0.0
2015-Jan-30 03:31N 46°51' E 031°59'0 0.0
2015-Jan-30 02:31N 46°51' E 031°59'0 0.0
2015-Jan-30 01:31N 46°51' E 031°59'0 0.0
2015-Jan-30 00:31N 46°51' E 031°59'0 0.0
2015-Jan-29 23:31N 46°51' E 031°59'0 0.0
2015-Jan-29 22:31N 46°51' E 031°59'0 0.0
2015-Jan-29 21:31N 46°51' E 031°59'0 0.0
2015-Jan-29 20:31N 46°51' E 031°59'0 0.0
2015-Jan-29 19:31N 46°51' E 031°59'0 0.0
2015-Jan-29 18:31N 46°51' E 031°59'0 0.0
2015-Jan-29 17:31N 46°51' E 031°59'0 0.0
2015-Jan-29 16:28N 46°51' E 031°59'0 0.0
2015-Jan-29 15:31N 46°51' E 031°59'0 0.0
2015-Jan-29 14:31N 46°51' E 031°59'0 0.0
2015-Jan-29 13:31N 46°51' E 031°59'0 0.0
2015-Jan-29 12:31N 46°51' E 031°59'0 0.0
2015-Jan-29 11:31N 46°51' E 031°59'0 0.0
2015-Jan-29 10:31N 46°51' E 031°59'0 0.0
2015-Jan-29 09:31N 46°51' E 031°59'0 0.0
2015-Jan-29 08:31N 46°51' E 031°59'0 0.0
2015-Jan-29 07:31N 46°51' E 031°59'0 0.0
2015-Jan-29 06:31N 46°51' E 031°59'0 0.0
2015-Jan-29 05:31N 46°51' E 031°59'0 0.0
2015-Jan-29 04:31N 46°51' E 031°59'0 0.0
2015-Jan-29 03:31N 46°51' E 031°59'0 0.0
2015-Jan-29 02:31N 46°51' E 031°59'0 0.0
2015-Jan-29 01:31N 46°51' E 031°59'0 0.0
2015-Jan-29 00:31N 46°51' E 031°59'1 1.3
2015-Jan-28 23:32N 46°50' E 031°57'2 1.6
2015-Jan-28 22:33N 46°51' E 031°59'0 0.3
2015-Jan-28 21:32N 46°51' E 031°59'0 0.0
2015-Jan-28 20:32N 46°51' E 031°59'0 0.0
2015-Jan-28 19:32N 46°51' E 031°59'0 0.0
2015-Jan-28 18:32N 46°51' E 031°59'0 0.0
2015-Jan-28 17:32N 46°51' E 031°59'0 0.0
2015-Jan-28 16:32N 46°51' E 031°59'0 0.0
2015-Jan-28 15:32N 46°51' E 031°59'0 0.1
2015-Jan-28 14:33N 46°51' E 031°59'1 0.9
2015-Jan-28 13:33N 46°51' E 031°58'1 1.4
2015-Jan-28 12:33N 46°50' E 031°56'2 1.7
2015-Jan-28 11:31N 46°51' E 031°59'0 0.0
2015-Jan-28 10:31N 46°51' E 031°59'0 0.0
2015-Jan-28 08:31N 46°51' E 031°59'0 0.0
2015-Jan-28 07:31N 46°51' E 031°59'0 0.3
2015-Jan-28 06:32N 46°51' E 031°59'0 0.3
2015-Jan-28 05:29N 46°51' E 031°59'0 0.0
2015-Jan-28 04:26N 46°51' E 031°59'0 0.0
2015-Jan-28 03:32N 46°51' E 031°59'0 0.0
2015-Jan-28 02:32N 46°51' E 031°59'0 0.0
2015-Jan-28 01:32N 46°51' E 031°59'0 0.0
2015-Jan-28 00:32N 46°51' E 031°59'0 0.0
2015-Jan-27 23:32N 46°51' E 031°59'0 0.0
2015-Jan-27 22:32N 46°51' E 031°59'0 0.0
2015-Jan-27 21:32N 46°51' E 031°59'0 0.2
2015-Jan-27 20:33N 46°51' E 031°59'0 0.2
2015-Jan-27 19:33N 46°51' E 031°59'0 0.0
2015-Jan-27 18:33N 46°51' E 031°59'0 0.0
2015-Jan-27 17:33N 46°51' E 031°59'0 0.0
2015-Jan-27 16:33N 46°51' E 031°59'0 0.0
2015-Jan-27 15:33N 46°51' E 031°59'0 0.0
2015-Jan-27 14:31N 46°51' E 031°59'0 0.0
2015-Jan-27 13:31N 46°51' E 031°59'0 0.0
2015-Jan-27 12:31N 46°51' E 031°59'0 0.0
2015-Jan-27 11:31N 46°51' E 031°59'0 0.0
2015-Jan-27 10:31N 46°51' E 031°59'0 0.0
2015-Jan-27 09:33N 46°51' E 031°59'0 0.0
2015-Jan-27 08:31N 46°51' E 031°59'0 0.0
2015-Jan-27 07:31N 46°51' E 031°59'0 0.0
2015-Jan-27 06:31N 46°51' E 031°59'0 0.0
2015-Jan-27 05:31N 46°51' E 031°59'0 0.0
2015-Jan-27 04:31N 46°51' E 031°59'0 0.0
2015-Jan-27 03:32N 46°51' E 031°59'0 0.0
2015-Jan-27 02:32N 46°51' E 031°59'0 0.0
2015-Jan-27 01:33N 46°51' E 031°59'1 0.8
2015-Jan-27 00:33N 46°51' E 031°58'1 0.8
2015-Jan-26 23:33N 46°51' E 031°59'0 0.0
2015-Jan-26 22:33N 46°51' E 031°59'0 0.0
2015-Jan-26 21:31N 46°51' E 031°59'0 0.0
2015-Jan-26 20:32N 46°51' E 031°59'0 0.0
2015-Jan-26 19:32N 46°51' E 031°59'0 0.0
2015-Jan-26 18:31N 46°51' E 031°59'0 0.0
2015-Jan-26 17:31N 46°51' E 031°59'0 0.0
2015-Jan-26 16:31N 46°51' E 031°59'0 0.0
2015-Jan-26 15:31N 46°51' E 031°59'0 0.0
2015-Jan-26 14:31N 46°51' E 031°59'0 0.0
2015-Jan-26 13:32N 46°51' E 031°59'0 0.0
2015-Jan-26 12:33N 46°51' E 031°59'0 0.1
2015-Jan-26 11:32N 46°51' E 031°59'0 0.1
2015-Jan-26 10:31N 46°51' E 031°59'0 0.0
2015-Jan-26 09:33N 46°51' E 031°59'0 0.0
2015-Jan-26 08:33N 46°51' E 031°59'0 0.0
2015-Jan-26 07:33N 46°51' E 031°59'0 0.0
2015-Jan-26 06:33N 46°51' E 031°59'1 1.0
2015-Jan-26 05:29N 46°50' E 031°57'1 1.2
2015-Jan-26 04:33N 46°51' E 031°59'0 0.0
2015-Jan-26 03:33N 46°51' E 031°59'0 0.0
2015-Jan-26 02:33N 46°51' E 031°59'0 0.0
2015-Jan-26 01:33N 46°51' E 031°59'0 0.0
2015-Jan-26 00:33N 46°51' E 031°59'0 0.0
2015-Jan-25 23:30N 46°51' E 031°59'0 0.0
2015-Jan-25 22:30N 46°51' E 031°59'0 0.0
2015-Jan-25 21:30N 46°51' E 031°59'0 0.0
2015-Jan-25 20:33N 46°51' E 031°59'0 0.0
2015-Jan-25 19:24N 46°51' E 031°59'0 0.0
2015-Jan-25 18:33N 46°51' E 031°59'0 0.0
2015-Jan-25 17:33N 46°51' E 031°59'0 0.2
2015-Jan-25 16:33N 46°51' E 031°59'0 0.2
2015-Jan-25 15:32N 46°51' E 031°59'0 0.0
2015-Jan-25 14:32N 46°51' E 031°59'0 0.0
2015-Jan-25 13:32N 46°51' E 031°59'0 0.0
2015-Jan-25 12:32N 46°51' E 031°59'0 0.0
2015-Jan-25 11:29N 46°51' E 031°59'0 0.0
2015-Jan-25 10:32N 46°51' E 031°59'0 0.0
2015-Jan-25 09:32N 46°51' E 031°59'0 0.0
2015-Jan-25 08:32N 46°51' E 031°59'0 0.0
2015-Jan-25 07:33N 46°51' E 031°59'0 0.0
2015-Jan-25 06:26N 46°51' E 031°59'0 0.0
2015-Jan-25 05:32N 46°51' E 031°59'0 0.0
2015-Jan-25 04:32N 46°51' E 031°59'0 0.0
2015-Jan-25 03:32N 46°51' E 031°59'0 0.3
2015-Jan-25 02:31N 46°51' E 031°59'0 0.3
2015-Jan-25 01:30N 46°51' E 031°59'0 0.0
2015-Jan-25 00:33N 46°51' E 031°59'0 0.0
2015-Jan-24 23:33N 46°51' E 031°59'0 0.0
2015-Jan-24 22:31N 46°51' E 031°59'0 0.4
2015-Jan-24 21:33N 46°51' E 031°59'0 0.0
2015-Jan-24 20:33N 46°51' E 031°59'0 0.0
2015-Jan-24 19:33N 46°51' E 031°59'0 0.0
2015-Jan-24 18:33N 46°51' E 031°59'0 0.0
2015-Jan-24 17:33N 46°51' E 031°59'0 0.3
2015-Jan-24 16:33N 46°51' E 031°59'2 2.0
2015-Jan-24 15:33N 46°50' E 031°56'2 2.1
2015-Jan-24 14:33N 46°51' E 031°59'1 1.4
2015-Jan-24 13:33N 46°51' E 031°57'8 7.8
2015-Jan-24 12:33N 46°43' E 031°56'6 0.3
2015-Jan-23 17:19N 46°37' E 031°52'6 7.8
2015-Jan-23 16:33N 46°42' E 031°56'8 7.9
2015-Jan-23 15:33N 46°50' E 031°56'1 1.2
2015-Jan-23 14:33N 46°51' E 031°57'1 1.1
2015-Jan-23 13:33N 46°51' E 031°59'0 0.0
2015-Jan-23 12:33N 46°51' E 031°59'5 4.8
2015-Jan-23 11:33N 46°56' E 032°01'3 2.8
2015-Jan-23 10:31N 46°59' E 031°60'0 0.0
2015-Jan-23 09:34N 46°59' E 031°60'0 0.0
2015-Jan-23 08:34N 46°59' E 031°60'1 1.0
2015-Jan-23 07:33N 46°59' E 031°59'5 4.6
2015-Jan-23 06:33N 46°55' E 032°01'4 4.0
2015-Jan-23 05:31N 46°51' E 031°59'0 0.0
2015-Jan-23 04:31N 46°51' E 031°59'0 0.0
2015-Jan-23 03:28N 46°51' E 031°59'0 0.0
2015-Jan-23 02:31N 46°51' E 031°59'0 0.0
2015-Jan-23 01:31N 46°51' E 031°59'0 0.0
2015-Jan-23 00:31N 46°51' E 031°59'0 0.0
2015-Jan-22 23:31N 46°51' E 031°59'0 0.0
2015-Jan-22 22:31N 46°51' E 031°59'0 0.0
2015-Jan-22 21:31N 46°51' E 031°59'0 0.0
2015-Jan-22 20:31N 46°51' E 031°59'0 0.0
2015-Jan-22 19:31N 46°51' E 031°59'0 0.0
2015-Jan-22 18:31N 46°51' E 031°59'0 0.0
2015-Jan-22 17:31N 46°51' E 031°59'0 0.0
2015-Jan-22 16:31N 46°51' E 031°59'0 0.0
2015-Jan-22 15:31N 46°51' E 031°59'0 0.0
2015-Jan-22 14:28N 46°51' E 031°59'0 0.0
2015-Jan-22 13:31N 46°51' E 031°59'0 0.0
2015-Jan-22 12:31N 46°51' E 031°59'0 0.0
2015-Jan-22 11:31N 46°51' E 031°59'0 0.0
2015-Jan-22 10:31N 46°51' E 031°59'0 0.0
2015-Jan-22 09:31N 46°51' E 031°59'0 0.0
2015-Jan-22 08:31N 46°51' E 031°59'0 0.0
2015-Jan-22 07:31N 46°51' E 031°59'0 0.0
2015-Jan-22 06:31N 46°51' E 031°59'0 0.0
2015-Jan-22 05:31N 46°51' E 031°59'0 0.0
2015-Jan-22 04:31N 46°51' E 031°59'0 0.0
2015-Jan-22 03:31N 46°51' E 031°59'0 0.0
2015-Jan-22 02:31N 46°51' E 031°59'0 0.0
2015-Jan-22 01:31N 46°51' E 031°59'0 0.0
2015-Jan-22 00:31N 46°51' E 031°59'0 0.0
2015-Jan-21 23:31N 46°51' E 031°59'0 0.0
2015-Jan-21 22:49N 46°51' E 031°59'0 0.0
2015-Jan-21 22:43N 46°51' E 031°59'0 0.0
2015-Jan-21 22:31N 46°51' E 031°59'0 0.0
2015-Jan-21 21:31N 46°51' E 031°59'0 0.0
2015-Jan-21 20:31N 46°51' E 031°59'5 5.2
2015-Jan-21 19:33N 46°56' E 032°01'7 6.6
2015-Jan-21 18:33N 46°50' E 031°56'2 2.1
2015-Jan-21 17:33N 46°51' E 031°59'0 0.0
2015-Jan-21 16:33N 46°51' E 031°59'0 0.0
2015-Jan-21 15:33N 46°51' E 031°59'0 0.0
2015-Jan-21 14:33N 46°51' E 031°59'0 0.0
2015-Jan-21 13:33N 46°51' E 031°59'0 0.3
2015-Jan-21 12:33N 46°51' E 031°59'0 0.3
2015-Jan-21 11:31N 46°51' E 031°59'0 0.0
2015-Jan-21 10:31N 46°51' E 031°59'0 0.0
2015-Jan-21 09:33N 46°51' E 031°59'0 0.0
2015-Jan-21 08:31N 46°51' E 031°59'0 0.0
2015-Jan-21 07:31N 46°51' E 031°59'0 0.0
2015-Jan-21 06:31N 46°51' E 031°59'0 0.0
2015-Jan-21 05:31N 46°51' E 031°59'0 0.0
2015-Jan-21 04:31N 46°51' E 031°59'0 0.0
2015-Jan-21 03:31N 46°51' E 031°59'0 0.0
2015-Jan-21 02:31N 46°51' E 031°59'0 0.0
2015-Jan-21 01:31N 46°51' E 031°59'0 0.0
2015-Jan-21 00:31N 46°51' E 031°59'0 0.0
2015-Jan-20 23:31N 46°51' E 031°59'0 0.0
2015-Jan-20 22:33N 46°51' E 031°59'0 0.0
2015-Jan-20 21:32N 46°51' E 031°59'0 0.0
2015-Jan-20 20:32N 46°51' E 031°59'0 0.0
2015-Jan-20 19:32N 46°51' E 031°59'0 0.0
2015-Jan-20 18:32N 46°51' E 031°59'0 0.0
2015-Jan-20 17:32N 46°51' E 031°59'0 0.0
2015-Jan-20 16:32N 46°51' E 031°59'0 0.0
2015-Jan-20 15:32N 46°51' E 031°59'0 0.0
2015-Jan-20 14:32N 46°51' E 031°59'0 0.0
2015-Jan-20 13:33N 46°51' E 031°59'0 0.0
2015-Jan-20 12:33N 46°51' E 031°59'0 0.0
2015-Jan-20 11:33N 46°51' E 031°59'0 0.0
2015-Jan-20 10:32N 46°51' E 031°59'0 0.0
2015-Jan-20 09:31N 46°51' E 031°59'0 0.0
2015-Jan-20 08:33N 46°51' E 031°59'0 0.0
2015-Jan-20 07:33N 46°51' E 031°59'0 0.0
2015-Jan-20 06:33N 46°51' E 031°59'0 0.0
2015-Jan-20 05:30N 46°51' E 031°59'  

Dump ship's entire track history